sensor_id;sensor_type;location;lat;lon;timestamp;temperature;humidity
26278;DHT22;14000;52.056;8.510;2023-04-15T00:00:15;5.60;99.90
26278;DHT22;14000;52.056;8.510;2023-04-15T00:02:42;5.90;99.90
26278;DHT22;14000;52.056;8.510;2023-04-15T00:05:08;5.70;99.90
26278;DHT22;14000;52.056;8.510;2023-04-15T00:07:34;5.60;99.90
26278;DHT22;14000;52.056;8.510;2023-04-15T00:10:00;5.60;99.90
26278;DHT22;14000;52.056;8.510;2023-04-15T00:12:27;6.60;99.90
26278;DHT22;14000;52.056;8.510;2023-04-15T00:14:53;5.70;99.90
26278;DHT22;14000;52.056;8.510;2023-04-15T00:17:19;6.90;99.90
26278;DHT22;14000;52.056;8.510;2023-04-15T00:19:45;5.60;99.90
26278;DHT22;14000;52.056;8.510;2023-04-15T00:22:11;5.60;99.90
26278;DHT22;14000;52.056;8.510;2023-04-15T00:24:37;5.60;99.90
26278;DHT22;14000;52.056;8.510;2023-04-15T00:27:03;5.50;99.90
26278;DHT22;14000;52.056;8.510;2023-04-15T00:29:29;5.60;99.90
26278;DHT22;14000;52.056;8.510;2023-04-15T00:31:55;5.50;99.90
26278;DHT22;14000;52.056;8.510;2023-04-15T00:34:23;6.30;99.90
26278;DHT22;14000;52.056;8.510;2023-04-15T00:36:50;5.50;99.90
26278;DHT22;14000;52.056;8.510;2023-04-15T00:39:17;5.40;99.90
26278;DHT22;14000;52.056;8.510;2023-04-15T00:41:43;5.40;99.90
26278;DHT22;14000;52.056;8.510;2023-04-15T00:44:10;5.50;99.90
26278;DHT22;14000;52.056;8.510;2023-04-15T00:46:37;5.40;99.90
26278;DHT22;14000;52.056;8.510;2023-04-15T00:49:04;5.40;99.90
26278;DHT22;14000;52.056;8.510;2023-04-15T00:51:30;5.30;99.90
26278;DHT22;14000;52.056;8.510;2023-04-15T00:54:02;6.60;99.90
26278;DHT22;14000;52.056;8.510;2023-04-15T00:56:28;5.30;99.90
26278;DHT22;14000;52.056;8.510;2023-04-15T00:58:54;6.00;99.90
26278;DHT22;14000;52.056;8.510;2023-04-15T01:01:21;5.30;99.90
26278;DHT22;14000;52.056;8.510;2023-04-15T01:03:50;5.20;99.90
26278;DHT22;14000;52.056;8.510;2023-04-15T01:06:17;5.30;99.90
26278;DHT22;14000;52.056;8.510;2023-04-15T01:08:43;5.10;99.90
26278;DHT22;14000;52.056;8.510;2023-04-15T01:11:11;5.20;99.90
26278;DHT22;14000;52.056;8.510;2023-04-15T01:13:37;5.10;99.90
26278;DHT22;14000;52.056;8.510;2023-04-15T01:16:03;5.90;99.90
26278;DHT22;14000;52.056;8.510;2023-04-15T01:18:29;5.10;99.90
26278;DHT22;14000;52.056;8.510;2023-04-15T01:20:55;5.90;99.90
26278;DHT22;14000;52.056;8.510;2023-04-15T01:23:21;5.10;99.90
26278;DHT22;14000;52.056;8.510;2023-04-15T01:25:48;6.30;99.90
26278;DHT22;14000;52.056;8.510;2023-04-15T01:28:15;5.20;99.90
26278;DHT22;14000;52.056;8.510;2023-04-15T01:30:40;5.20;99.90
26278;DHT22;14000;52.056;8.510;2023-04-15T01:33:06;5.10;99.90
26278;DHT22;14000;52.056;8.510;2023-04-15T01:38:55;5.00;99.90
26278;DHT22;14000;52.056;8.510;2023-04-15T01:41:27;4.90;99.90
26278;DHT22;14000;52.056;8.510;2023-04-15T01:43:53;4.90;99.90
26278;DHT22;14000;52.056;8.510;2023-04-15T01:46:19;4.90;99.90
26278;DHT22;14000;52.056;8.510;2023-04-15T01:48:45;4.80;99.90
26278;DHT22;14000;52.056;8.510;2023-04-15T01:51:11;6.10;99.90
26278;DHT22;14000;52.056;8.510;2023-04-15T01:53:37;5.20;99.90
26278;DHT22;14000;52.056;8.510;2023-04-15T01:56:03;4.80;99.90
26278;DHT22;14000;52.056;8.510;2023-04-15T01:58:29;4.80;99.90
26278;DHT22;14000;52.056;8.510;2023-04-15T02:00:55;4.80;99.90
26278;DHT22;14000;52.056;8.510;2023-04-15T02:03:21;4.80;99.90
26278;DHT22;14000;52.056;8.510;2023-04-15T02:05:47;5.90;99.90
26278;DHT22;14000;52.056;8.510;2023-04-15T02:08:13;5.20;99.90
26278;DHT22;14000;52.056;8.510;2023-04-15T02:10:39;4.90;99.90
26278;DHT22;14000;52.056;8.510;2023-04-15T02:13:04;5.90;99.90
26278;DHT22;14000;52.056;8.510;2023-04-15T02:15:30;6.20;99.90
26278;DHT22;14000;52.056;8.510;2023-04-15T02:17:56;4.90;99.90
26278;DHT22;14000;52.056;8.510;2023-04-15T02:20:22;5.50;99.90
26278;DHT22;14000;52.056;8.510;2023-04-15T02:22:48;4.80;99.90
26278;DHT22;14000;52.056;8.510;2023-04-15T02:25:14;4.80;99.90
26278;DHT22;14000;52.056;8.510;2023-04-15T02:27:41;4.80;99.90
26278;DHT22;14000;52.056;8.510;2023-04-15T02:30:07;4.70;99.90
26278;DHT22;14000;52.056;8.510;2023-04-15T02:32:33;4.80;99.90
26278;DHT22;14000;52.056;8.510;2023-04-15T02:35:03;4.90;99.90
26278;DHT22;14000;52.056;8.510;2023-04-15T02:37:30;4.70;99.90
26278;DHT22;14000;52.056;8.510;2023-04-15T02:39:56;4.70;99.90
26278;DHT22;14000;52.056;8.510;2023-04-15T02:42:22;5.90;99.90
26278;DHT22;14000;52.056;8.510;2023-04-15T02:44:47;7.40;99.90
26278;DHT22;14000;52.056;8.510;2023-04-15T02:47:13;4.70;99.90
26278;DHT22;14000;52.056;8.510;2023-04-15T02:49:40;6.50;99.90
26278;DHT22;14000;52.056;8.510;2023-04-15T02:52:06;4.70;99.90
26278;DHT22;14000;52.056;8.510;2023-04-15T02:54:32;4.80;99.90
26278;DHT22;14000;52.056;8.510;2023-04-15T02:56:58;4.70;99.90
26278;DHT22;14000;52.056;8.510;2023-04-15T02:59:24;6.20;99.90
26278;DHT22;14000;52.056;8.510;2023-04-15T03:01:50;4.80;99.90
26278;DHT22;14000;52.056;8.510;2023-04-15T03:04:15;4.80;99.90
26278;DHT22;14000;52.056;8.510;2023-04-15T03:06:41;4.90;99.90
26278;DHT22;14000;52.056;8.510;2023-04-15T03:09:07;4.70;99.90
26278;DHT22;14000;52.056;8.510;2023-04-15T03:11:34;6.80;99.90
26278;DHT22;14000;52.056;8.510;2023-04-15T03:14:04;5.60;99.90
26278;DHT22;14000;52.056;8.510;2023-04-15T03:16:30;6.00;99.90
26278;DHT22;14000;52.056;8.510;2023-04-15T03:18:56;5.10;99.90
26278;DHT22;14000;52.056;8.510;2023-04-15T03:21:21;4.60;99.90
26278;DHT22;14000;52.056;8.510;2023-04-15T03:23:48;4.60;99.90
26278;DHT22;14000;52.056;8.510;2023-04-15T03:26:27;5.40;99.90
26278;DHT22;14000;52.056;8.510;2023-04-15T03:28:53;4.60;99.90
26278;DHT22;14000;52.056;8.510;2023-04-15T03:31:19;4.60;99.90
26278;DHT22;14000;52.056;8.510;2023-04-15T03:33:45;4.60;99.90
26278;DHT22;14000;52.056;8.510;2023-04-15T03:36:10;5.00;99.90
26278;DHT22;14000;52.056;8.510;2023-04-15T03:38:36;5.60;99.90
26278;DHT22;14000;52.056;8.510;2023-04-15T03:41:02;4.60;99.90
26278;DHT22;14000;52.056;8.510;2023-04-15T03:43:27;4.50;99.90
26278;DHT22;14000;52.056;8.510;2023-04-15T03:45:53;4.50;99.90
26278;DHT22;14000;52.056;8.510;2023-04-15T03:48:19;4.50;99.90
26278;DHT22;14000;52.056;8.510;2023-04-15T03:50:46;5.30;99.90
26278;DHT22;14000;52.056;8.510;2023-04-15T03:53:11;5.70;99.90
26278;DHT22;14000;52.056;8.510;2023-04-15T03:55:37;4.50;99.90
26278;DHT22;14000;52.056;8.510;2023-04-15T03:58:03;5.40;99.90
26278;DHT22;14000;52.056;8.510;2023-04-15T04:00:28;5.50;99.90
26278;DHT22;14000;52.056;8.510;2023-04-15T04:02:54;4.50;99.90
26278;DHT22;14000;52.056;8.510;2023-04-15T04:05:20;5.80;99.90
26278;DHT22;14000;52.056;8.510;2023-04-15T04:07:46;4.40;99.90
26278;DHT22;14000;52.056;8.510;2023-04-15T04:10:12;5.70;99.90
26278;DHT22;14000;52.056;8.510;2023-04-15T04:12:37;4.40;99.90
26278;DHT22;14000;52.056;8.510;2023-04-15T04:15:04;5.10;99.90
26278;DHT22;14000;52.056;8.510;2023-04-15T04:17:30;4.40;99.90
26278;DHT22;14000;52.056;8.510;2023-04-15T04:19:55;4.40;99.90
26278;DHT22;14000;52.056;8.510;2023-04-15T04:22:22;4.40;99.90
26278;DHT22;14000;52.056;8.510;2023-04-15T04:24:48;4.50;99.90
26278;DHT22;14000;52.056;8.510;2023-04-15T04:27:14;5.40;99.90
26278;DHT22;14000;52.056;8.510;2023-04-15T04:29:40;4.50;99.90
26278;DHT22;14000;52.056;8.510;2023-04-15T04:32:06;4.50;99.90
26278;DHT22;14000;52.056;8.510;2023-04-15T04:34:31;4.50;99.90
26278;DHT22;14000;52.056;8.510;2023-04-15T04:36:57;4.50;99.90
26278;DHT22;14000;52.056;8.510;2023-04-15T04:39:23;4.50;99.90
26278;DHT22;14000;52.056;8.510;2023-04-15T04:41:48;4.60;99.90
26278;DHT22;14000;52.056;8.510;2023-04-15T04:44:16;4.50;99.90
26278;DHT22;14000;52.056;8.510;2023-04-15T04:46:42;4.50;99.90
26278;DHT22;14000;52.056;8.510;2023-04-15T04:49:07;4.80;99.90
26278;DHT22;14000;52.056;8.510;2023-04-15T04:51:33;4.50;99.90
26278;DHT22;14000;52.056;8.510;2023-04-15T04:53:59;4.50;99.90
26278;DHT22;14000;52.056;8.510;2023-04-15T04:56:25;5.10;99.90
26278;DHT22;14000;52.056;8.510;2023-04-15T04:58:50;4.60;99.90
26278;DHT22;14000;52.056;8.510;2023-04-15T05:01:16;5.50;99.90
26278;DHT22;14000;52.056;8.510;2023-04-15T05:03:42;4.60;99.90
26278;DHT22;14000;52.056;8.510;2023-04-15T05:06:07;5.80;99.90
26278;DHT22;14000;52.056;8.510;2023-04-15T05:08:33;4.90;99.90
26278;DHT22;14000;52.056;8.510;2023-04-15T05:10:59;4.90;99.90
26278;DHT22;14000;52.056;8.510;2023-04-15T05:13:25;4.70;99.90
26278;DHT22;14000;52.056;8.510;2023-04-15T05:15:50;4.90;99.90
26278;DHT22;14000;52.056;8.510;2023-04-15T05:18:16;4.80;99.90
26278;DHT22;14000;52.056;8.510;2023-04-15T05:20:42;4.80;99.90
26278;DHT22;14000;52.056;8.510;2023-04-15T05:23:08;4.90;99.90
26278;DHT22;14000;52.056;8.510;2023-04-15T05:25:34;5.10;99.90
26278;DHT22;14000;52.056;8.510;2023-04-15T05:27:59;5.10;99.90
26278;DHT22;14000;52.056;8.510;2023-04-15T05:30:25;5.10;99.90
26278;DHT22;14000;52.056;8.510;2023-04-15T05:32:51;6.10;99.90
26278;DHT22;14000;52.056;8.510;2023-04-15T05:35:17;5.20;99.90
26278;DHT22;14000;52.056;8.510;2023-04-15T05:37:44;5.20;99.90
26278;DHT22;14000;52.056;8.510;2023-04-15T05:40:10;5.30;99.90
26278;DHT22;14000;52.056;8.510;2023-04-15T05:42:36;5.30;99.90
26278;DHT22;14000;52.056;8.510;2023-04-15T05:45:02;5.40;99.90
26278;DHT22;14000;52.056;8.510;2023-04-15T05:47:30;5.40;99.90
26278;DHT22;14000;52.056;8.510;2023-04-15T05:49:56;6.80;99.90
26278;DHT22;14000;52.056;8.510;2023-04-15T05:52:23;5.50;99.90
26278;DHT22;14000;52.056;8.510;2023-04-15T05:54:49;5.60;99.90
26278;DHT22;14000;52.056;8.510;2023-04-15T05:57:15;5.70;99.90
26278;DHT22;14000;52.056;8.510;2023-04-15T05:59:41;5.80;99.90
26278;DHT22;14000;52.056;8.510;2023-04-15T06:02:08;6.80;99.90
26278;DHT22;14000;52.056;8.510;2023-04-15T06:04:34;6.30;99.90
26278;DHT22;14000;52.056;8.510;2023-04-15T06:06:59;6.00;99.90
26278;DHT22;14000;52.056;8.510;2023-04-15T06:09:25;6.60;99.90
26278;DHT22;14000;52.056;8.510;2023-04-15T06:11:52;6.10;99.90
26278;DHT22;14000;52.056;8.510;2023-04-15T06:14:17;6.20;99.90
26278;DHT22;14000;52.056;8.510;2023-04-15T06:16:43;7.10;99.90
26278;DHT22;14000;52.056;8.510;2023-04-15T06:19:09;6.50;99.90
26278;DHT22;14000;52.056;8.510;2023-04-15T06:21:35;6.60;99.90
26278;DHT22;14000;52.056;8.510;2023-04-15T06:24:01;8.20;99.90
26278;DHT22;14000;52.056;8.510;2023-04-15T06:26:27;7.00;99.90
26278;DHT22;14000;52.056;8.510;2023-04-15T06:28:53;7.30;99.90
26278;DHT22;14000;52.056;8.510;2023-04-15T06:31:18;6.80;99.90
26278;DHT22;14000;52.056;8.510;2023-04-15T06:33:45;6.80;99.90
26278;DHT22;14000;52.056;8.510;2023-04-15T06:36:11;6.80;99.90
26278;DHT22;14000;52.056;8.510;2023-04-15T06:38:36;6.90;99.90
26278;DHT22;14000;52.056;8.510;2023-04-15T06:41:03;7.00;99.90
26278;DHT22;14000;52.056;8.510;2023-04-15T06:43:28;7.00;99.90
26278;DHT22;14000;52.056;8.510;2023-04-15T06:45:55;7.00;99.90
26278;DHT22;14000;52.056;8.510;2023-04-15T06:48:21;8.20;99.90
26278;DHT22;14000;52.056;8.510;2023-04-15T06:50:48;7.00;99.90
26278;DHT22;14000;52.056;8.510;2023-04-15T06:53:13;8.40;99.90
26278;DHT22;14000;52.056;8.510;2023-04-15T06:55:40;7.80;99.90
26278;DHT22;14000;52.056;8.510;2023-04-15T06:58:06;7.10;99.90
26278;DHT22;14000;52.056;8.510;2023-04-15T07:00:32;8.60;99.90
26278;DHT22;14000;52.056;8.510;2023-04-15T07:02:59;8.00;99.90
26278;DHT22;14000;52.056;8.510;2023-04-15T07:05:28;7.00;99.90
26278;DHT22;14000;52.056;8.510;2023-04-15T07:07:54;7.00;99.90
26278;DHT22;14000;52.056;8.510;2023-04-15T07:10:20;6.90;99.90
26278;DHT22;14000;52.056;8.510;2023-04-15T07:12:47;7.00;99.90
26278;DHT22;14000;52.056;8.510;2023-04-15T07:15:13;7.80;99.90
26278;DHT22;14000;52.056;8.510;2023-04-15T07:17:40;6.90;99.90
26278;DHT22;14000;52.056;8.510;2023-04-15T07:20:07;6.90;99.90
26278;DHT22;14000;52.056;8.510;2023-04-15T07:22:33;6.90;99.90
26278;DHT22;14000;52.056;8.510;2023-04-15T07:24:59;7.00;99.90
26278;DHT22;14000;52.056;8.510;2023-04-15T07:27:25;6.90;99.90
26278;DHT22;14000;52.056;8.510;2023-04-15T07:29:51;6.90;99.90
26278;DHT22;14000;52.056;8.510;2023-04-15T07:32:18;8.40;99.90
26278;DHT22;14000;52.056;8.510;2023-04-15T07:34:43;7.70;99.90
26278;DHT22;14000;52.056;8.510;2023-04-15T07:37:09;6.90;99.90
26278;DHT22;14000;52.056;8.510;2023-04-15T07:39:35;7.60;99.90
26278;DHT22;14000;52.056;8.510;2023-04-15T07:42:02;7.70;99.90
26278;DHT22;14000;52.056;8.510;2023-04-15T07:44:28;6.90;99.90
26278;DHT22;14000;52.056;8.510;2023-04-15T07:46:55;7.00;99.90
26278;DHT22;14000;52.056;8.510;2023-04-15T07:49:21;6.90;99.90
26278;DHT22;14000;52.056;8.510;2023-04-15T07:51:47;6.90;99.90
26278;DHT22;14000;52.056;8.510;2023-04-15T07:54:14;6.90;99.90
26278;DHT22;14000;52.056;8.510;2023-04-15T07:56:39;7.00;99.90
26278;DHT22;14000;52.056;8.510;2023-04-15T07:59:05;7.20;99.90
26278;DHT22;14000;52.056;8.510;2023-04-15T08:01:31;7.10;99.90
26278;DHT22;14000;52.056;8.510;2023-04-15T08:03:58;7.80;99.90
26278;DHT22;14000;52.056;8.510;2023-04-15T08:06:23;7.10;99.90
26278;DHT22;14000;52.056;8.510;2023-04-15T08:08:49;7.20;99.90
26278;DHT22;14000;52.056;8.510;2023-04-15T08:11:15;7.80;99.90
26278;DHT22;14000;52.056;8.510;2023-04-15T08:13:41;7.30;99.90
26278;DHT22;14000;52.056;8.510;2023-04-15T08:16:16;8.00;99.90
26278;DHT22;14000;52.056;8.510;2023-04-15T08:18:43;7.20;99.90
26278;DHT22;14000;52.056;8.510;2023-04-15T08:21:10;7.10;99.90
26278;DHT22;14000;52.056;8.510;2023-04-15T08:23:36;7.70;99.90
26278;DHT22;14000;52.056;8.510;2023-04-15T08:26:02;7.70;99.90
26278;DHT22;14000;52.056;8.510;2023-04-15T08:28:28;7.20;99.90
26278;DHT22;14000;52.056;8.510;2023-04-15T08:30:53;7.90;99.90
26278;DHT22;14000;52.056;8.510;2023-04-15T08:33:19;7.00;99.90
26278;DHT22;14000;52.056;8.510;2023-04-15T08:35:45;8.70;99.90
26278;DHT22;14000;52.056;8.510;2023-04-15T08:38:11;7.20;99.90
26278;DHT22;14000;52.056;8.510;2023-04-15T08:40:41;7.50;99.90
26278;DHT22;14000;52.056;8.510;2023-04-15T08:43:12;7.00;99.90
26278;DHT22;14000;52.056;8.510;2023-04-15T08:45:40;7.00;99.90
26278;DHT22;14000;52.056;8.510;2023-04-15T08:48:08;7.60;99.90
26278;DHT22;14000;52.056;8.510;2023-04-15T08:50:39;7.10;99.90
26278;DHT22;14000;52.056;8.510;2023-04-15T08:53:05;7.20;99.90
26278;DHT22;14000;52.056;8.510;2023-04-15T08:55:32;7.20;99.90
26278;DHT22;14000;52.056;8.510;2023-04-15T08:58:01;7.30;99.90
26278;DHT22;14000;52.056;8.510;2023-04-15T09:00:28;7.40;99.90
26278;DHT22;14000;52.056;8.510;2023-04-15T09:02:55;7.30;99.90
26278;DHT22;14000;52.056;8.510;2023-04-15T09:05:21;7.30;99.90
26278;DHT22;14000;52.056;8.510;2023-04-15T09:07:49;7.60;99.90
26278;DHT22;14000;52.056;8.510;2023-04-15T09:10:14;7.60;99.90
26278;DHT22;14000;52.056;8.510;2023-04-15T09:12:40;7.70;99.90
26278;DHT22;14000;52.056;8.510;2023-04-15T09:15:07;7.70;99.90
26278;DHT22;14000;52.056;8.510;2023-04-15T09:17:42;7.80;99.90
26278;DHT22;14000;52.056;8.510;2023-04-15T09:20:09;7.80;99.90
26278;DHT22;14000;52.056;8.510;2023-04-15T09:22:35;7.90;99.90
26278;DHT22;14000;52.056;8.510;2023-04-15T09:25:02;7.90;99.90
26278;DHT22;14000;52.056;8.510;2023-04-15T09:27:28;7.90;99.90
26278;DHT22;14000;52.056;8.510;2023-04-15T09:29:54;7.90;99.90
26278;DHT22;14000;52.056;8.510;2023-04-15T09:32:19;8.40;99.90
26278;DHT22;14000;52.056;8.510;2023-04-15T09:34:49;7.90;99.90
26278;DHT22;14000;52.056;8.510;2023-04-15T09:37:15;8.00;99.90
26278;DHT22;14000;52.056;8.510;2023-04-15T09:39:50;7.80;99.90
26278;DHT22;14000;52.056;8.510;2023-04-15T09:42:17;7.80;99.90
26278;DHT22;14000;52.056;8.510;2023-04-15T09:44:49;7.80;99.90
26278;DHT22;14000;52.056;8.510;2023-04-15T09:47:31;7.80;99.90
26278;DHT22;14000;52.056;8.510;2023-04-15T09:49:58;8.10;99.90
26278;DHT22;14000;52.056;8.510;2023-04-15T09:52:24;8.10;99.90
26278;DHT22;14000;52.056;8.510;2023-04-15T09:54:53;8.00;99.90
26278;DHT22;14000;52.056;8.510;2023-04-15T09:57:21;7.90;99.90
26278;DHT22;14000;52.056;8.510;2023-04-15T09:59:48;7.90;99.90
26278;DHT22;14000;52.056;8.510;2023-04-15T10:02:15;7.90;99.90
26278;DHT22;14000;52.056;8.510;2023-04-15T10:04:43;7.80;99.90
26278;DHT22;14000;52.056;8.510;2023-04-15T10:07:11;7.80;99.90
26278;DHT22;14000;52.056;8.510;2023-04-15T10:09:40;7.80;99.90
26278;DHT22;14000;52.056;8.510;2023-04-15T10:12:07;7.80;99.90
26278;DHT22;14000;52.056;8.510;2023-04-15T10:14:37;8.40;99.90
26278;DHT22;14000;52.056;8.510;2023-04-15T10:17:04;8.40;99.90
26278;DHT22;14000;52.056;8.510;2023-04-15T10:19:32;7.80;99.90
26278;DHT22;14000;52.056;8.510;2023-04-15T10:21:59;7.80;99.90
26278;DHT22;14000;52.056;8.510;2023-04-15T10:24:25;7.80;99.90
26278;DHT22;14000;52.056;8.510;2023-04-15T10:26:52;8.80;99.90
26278;DHT22;14000;52.056;8.510;2023-04-15T10:29:19;8.90;99.90
26278;DHT22;14000;52.056;8.510;2023-04-15T10:31:45;8.60;99.90
26278;DHT22;14000;52.056;8.510;2023-04-15T10:34:11;8.00;99.90
26278;DHT22;14000;52.056;8.510;2023-04-15T10:36:37;8.90;99.90
26278;DHT22;14000;52.056;8.510;2023-04-15T10:42:10;8.00;99.90
26278;DHT22;14000;52.056;8.510;2023-04-15T10:44:37;8.00;99.90
26278;DHT22;14000;52.056;8.510;2023-04-15T10:47:21;8.00;99.90
26278;DHT22;14000;52.056;8.510;2023-04-15T10:52:16;8.10;99.90
26278;DHT22;14000;52.056;8.510;2023-04-15T10:54:42;8.10;99.90
26278;DHT22;14000;52.056;8.510;2023-04-15T10:57:20;8.10;99.90
26278;DHT22;14000;52.056;8.510;2023-04-15T11:00:15;8.10;99.90
26278;DHT22;14000;52.056;8.510;2023-04-15T11:03:04;8.10;99.90
26278;DHT22;14000;52.056;8.510;2023-04-15T11:08:09;8.00;99.90
26278;DHT22;14000;52.056;8.510;2023-04-15T11:13:03;8.50;99.90
26278;DHT22;14000;52.056;8.510;2023-04-15T11:15:38;8.60;99.90
26278;DHT22;14000;52.056;8.510;2023-04-15T11:20:47;8.00;99.90
26278;DHT22;14000;52.056;8.510;2023-04-15T11:23:16;8.00;99.90
26278;DHT22;14000;52.056;8.510;2023-04-15T11:25:43;8.00;99.90
26278;DHT22;14000;52.056;8.510;2023-04-15T11:28:09;8.00;99.90
26278;DHT22;14000;52.056;8.510;2023-04-15T11:30:36;8.00;99.90
26278;DHT22;14000;52.056;8.510;2023-04-15T11:33:07;8.00;99.90
26278;DHT22;14000;52.056;8.510;2023-04-15T11:35:34;8.00;99.90
26278;DHT22;14000;52.056;8.510;2023-04-15T11:38:04;8.10;99.90
26278;DHT22;14000;52.056;8.510;2023-04-15T11:40:31;8.00;99.90
26278;DHT22;14000;52.056;8.510;2023-04-15T11:43:07;8.10;99.90
26278;DHT22;14000;52.056;8.510;2023-04-15T11:45:33;8.90;99.90
26278;DHT22;14000;52.056;8.510;2023-04-15T11:48:07;8.10;99.90
26278;DHT22;14000;52.056;8.510;2023-04-15T11:50:34;8.20;99.90
26278;DHT22;14000;52.056;8.510;2023-04-15T11:53:02;8.10;99.90
26278;DHT22;14000;52.056;8.510;2023-04-15T11:55:29;8.10;99.90
26278;DHT22;14000;52.056;8.510;2023-04-15T11:58:24;8.20;99.90
26278;DHT22;14000;52.056;8.510;2023-04-15T12:00:58;8.20;99.90
26278;DHT22;14000;52.056;8.510;2023-04-15T12:03:29;8.10;99.90
26278;DHT22;14000;52.056;8.510;2023-04-15T12:06:18;8.60;99.90
26278;DHT22;14000;52.056;8.510;2023-04-15T12:09:16;8.20;99.90
26278;DHT22;14000;52.056;8.510;2023-04-15T12:11:55;8.20;99.90
26278;DHT22;14000;52.056;8.510;2023-04-15T12:14:29;8.20;99.90
26278;DHT22;14000;52.056;8.510;2023-04-15T12:17:05;8.10;99.90
26278;DHT22;14000;52.056;8.510;2023-04-15T12:19:35;9.00;99.90
26278;DHT22;14000;52.056;8.510;2023-04-15T12:22:03;9.00;99.90
26278;DHT22;14000;52.056;8.510;2023-04-15T12:24:34;8.30;99.90
26278;DHT22;14000;52.056;8.510;2023-04-15T12:27:08;8.20;99.90
26278;DHT22;14000;52.056;8.510;2023-04-15T12:29:35;8.20;99.90
26278;DHT22;14000;52.056;8.510;2023-04-15T12:32:12;9.10;99.90
26278;DHT22;14000;52.056;8.510;2023-04-15T12:34:43;8.20;99.90
26278;DHT22;14000;52.056;8.510;2023-04-15T12:37:11;8.20;99.90
26278;DHT22;14000;52.056;8.510;2023-04-15T12:39:44;8.50;99.90
26278;DHT22;14000;52.056;8.510;2023-04-15T12:42:11;8.20;99.90
26278;DHT22;14000;52.056;8.510;2023-04-15T12:44:37;8.20;99.90
26278;DHT22;14000;52.056;8.510;2023-04-15T12:47:03;8.50;99.90
26278;DHT22;14000;52.056;8.510;2023-04-15T12:49:30;9.10;99.90
26278;DHT22;14000;52.056;8.510;2023-04-15T12:51:57;8.90;99.90
26278;DHT22;14000;52.056;8.510;2023-04-15T12:54:27;10.30;99.90
26278;DHT22;14000;52.056;8.510;2023-04-15T12:56:53;8.40;99.90
26278;DHT22;14000;52.056;8.510;2023-04-15T12:59:20;8.60;99.90
26278;DHT22;14000;52.056;8.510;2023-04-15T13:01:47;8.20;99.90
26278;DHT22;14000;52.056;8.510;2023-04-15T13:04:13;8.20;99.90
26278;DHT22;14000;52.056;8.510;2023-04-15T13:06:39;8.40;99.90
26278;DHT22;14000;52.056;8.510;2023-04-15T13:09:05;8.10;99.90
26278;DHT22;14000;52.056;8.510;2023-04-15T13:11:32;8.30;99.90
26278;DHT22;14000;52.056;8.510;2023-04-15T13:14:02;8.60;99.90
26278;DHT22;14000;52.056;8.510;2023-04-15T13:16:29;8.30;99.90
26278;DHT22;14000;52.056;8.510;2023-04-15T13:18:54;8.20;99.90
26278;DHT22;14000;52.056;8.510;2023-04-15T13:21:20;9.10;99.90
26278;DHT22;14000;52.056;8.510;2023-04-15T13:23:47;8.20;99.90
26278;DHT22;14000;52.056;8.510;2023-04-15T13:26:14;8.20;99.90
26278;DHT22;14000;52.056;8.510;2023-04-15T13:28:39;8.20;99.90
26278;DHT22;14000;52.056;8.510;2023-04-15T13:31:05;8.20;99.90
26278;DHT22;14000;52.056;8.510;2023-04-15T13:33:31;8.40;99.90
26278;DHT22;14000;52.056;8.510;2023-04-15T13:35:56;8.20;99.90
26278;DHT22;14000;52.056;8.510;2023-04-15T13:38:23;8.20;99.90
26278;DHT22;14000;52.056;8.510;2023-04-15T13:40:50;8.20;99.90
26278;DHT22;14000;52.056;8.510;2023-04-15T13:43:15;8.20;99.90
26278;DHT22;14000;52.056;8.510;2023-04-15T13:45:42;8.20;99.90
26278;DHT22;14000;52.056;8.510;2023-04-15T13:48:08;8.40;99.90
26278;DHT22;14000;52.056;8.510;2023-04-15T13:50:33;9.30;99.90
26278;DHT22;14000;52.056;8.510;2023-04-15T13:53:00;8.20;99.90
26278;DHT22;14000;52.056;8.510;2023-04-15T13:55:25;8.30;99.90
26278;DHT22;14000;52.056;8.510;2023-04-15T13:57:51;8.40;99.90
26278;DHT22;14000;52.056;8.510;2023-04-15T14:00:17;8.70;99.90
26278;DHT22;14000;52.056;8.510;2023-04-15T14:02:43;8.30;99.90
26278;DHT22;14000;52.056;8.510;2023-04-15T14:05:09;8.30;99.90
26278;DHT22;14000;52.056;8.510;2023-04-15T14:07:35;8.30;99.90
26278;DHT22;14000;52.056;8.510;2023-04-15T14:10:02;8.30;99.90
26278;DHT22;14000;52.056;8.510;2023-04-15T14:12:28;8.20;99.90
26278;DHT22;14000;52.056;8.510;2023-04-15T14:14:54;9.20;99.90
26278;DHT22;14000;52.056;8.510;2023-04-15T14:17:19;9.40;99.90
26278;DHT22;14000;52.056;8.510;2023-04-15T14:19:45;9.20;99.90
26278;DHT22;14000;52.056;8.510;2023-04-15T14:22:11;9.30;99.90
26278;DHT22;14000;52.056;8.510;2023-04-15T14:24:37;8.30;99.90
26278;DHT22;14000;52.056;8.510;2023-04-15T14:27:02;8.90;99.90
26278;DHT22;14000;52.056;8.510;2023-04-15T14:29:28;8.40;99.90
26278;DHT22;14000;52.056;8.510;2023-04-15T14:31:54;9.30;99.90
26278;DHT22;14000;52.056;8.510;2023-04-15T14:34:21;8.40;99.90
26278;DHT22;14000;52.056;8.510;2023-04-15T14:36:50;8.40;99.90
26278;DHT22;14000;52.056;8.510;2023-04-15T14:39:16;8.40;99.90
26278;DHT22;14000;52.056;8.510;2023-04-15T14:41:42;9.40;99.90
26278;DHT22;14000;52.056;8.510;2023-04-15T14:44:08;8.80;99.90
26278;DHT22;14000;52.056;8.510;2023-04-15T14:46:36;8.60;99.90
26278;DHT22;14000;52.056;8.510;2023-04-15T14:49:02;8.40;99.90
26278;DHT22;14000;52.056;8.510;2023-04-15T14:51:28;8.40;99.90
26278;DHT22;14000;52.056;8.510;2023-04-15T14:53:54;8.40;99.90
26278;DHT22;14000;52.056;8.510;2023-04-15T14:56:19;8.50;99.90
26278;DHT22;14000;52.056;8.510;2023-04-15T14:58:45;8.90;99.90
26278;DHT22;14000;52.056;8.510;2023-04-15T15:01:11;8.40;99.90
26278;DHT22;14000;52.056;8.510;2023-04-15T15:03:37;9.30;99.90
26278;DHT22;14000;52.056;8.510;2023-04-15T15:06:03;8.50;99.90
26278;DHT22;14000;52.056;8.510;2023-04-15T15:08:29;8.50;99.90
26278;DHT22;14000;52.056;8.510;2023-04-15T15:10:55;8.60;99.90
26278;DHT22;14000;52.056;8.510;2023-04-15T15:13:21;8.70;99.90
26278;DHT22;14000;52.056;8.510;2023-04-15T15:15:47;8.60;99.90
26278;DHT22;14000;52.056;8.510;2023-04-15T15:18:14;8.70;99.90
26278;DHT22;14000;52.056;8.510;2023-04-15T15:20:41;8.70;99.90
26278;DHT22;14000;52.056;8.510;2023-04-15T15:23:07;10.10;99.90
26278;DHT22;14000;52.056;8.510;2023-04-15T15:25:33;8.70;99.90
26278;DHT22;14000;52.056;8.510;2023-04-15T15:27:58;8.70;99.90
26278;DHT22;14000;52.056;8.510;2023-04-15T15:30:24;8.70;99.90
26278;DHT22;14000;52.056;8.510;2023-04-15T15:32:50;8.80;99.90
26278;DHT22;14000;52.056;8.510;2023-04-15T15:35:16;8.80;99.90
26278;DHT22;14000;52.056;8.510;2023-04-15T15:37:42;8.70;99.90
26278;DHT22;14000;52.056;8.510;2023-04-15T15:40:08;8.80;99.90
26278;DHT22;14000;52.056;8.510;2023-04-15T15:42:34;8.70;99.90
26278;DHT22;14000;52.056;8.510;2023-04-15T15:45:02;8.80;99.90
26278;DHT22;14000;52.056;8.510;2023-04-15T15:47:27;8.80;99.90
26278;DHT22;14000;52.056;8.510;2023-04-15T15:49:53;8.80;99.90
26278;DHT22;14000;52.056;8.510;2023-04-15T15:52:19;8.90;99.90
26278;DHT22;14000;52.056;8.510;2023-04-15T15:54:45;8.90;99.90
26278;DHT22;14000;52.056;8.510;2023-04-15T15:57:11;8.80;99.90
26278;DHT22;14000;52.056;8.510;2023-04-15T15:59:36;9.50;99.90